Time;durP1;ratioP1;P1;durP2;ratioP2;P2;SDS_P1;SDS_P2;PMS_P1;PMS_P2;Temp;Humidity;BMP_temperature;BMP_pressure;BME280_temperature;BME280_humidity;BME280_pressure;Samples;Min_cycle;Max_cycle;Signal;HPM_P1;HPM_P2
2023/08/18 00:02:48;;;;;;;12.30;8.50;;;;;;;21.49;100.00;100492.81;5588073;31;34103;-69
2023/08/18 00:05:51;;;;;;;12.30;8.07;;;;;;;21.37;100.00;100494.69;5588028;31;34627;-69
2023/08/18 00:08:53;;;;;;;9.48;7.65;;;;;;;21.35;100.00;100488.69;5588506;31;34447;-69
2023/08/18 00:11:56;;;;;;;10.32;8.57;;;;;;;21.35;100.00;100493.28;5587245;31;33905;-69
2023/08/18 00:14:59;;;;;;;14.05;7.95;;;;;;;21.35;100.00;100496.78;5588251;31;34304;-69
2023/08/18 00:18:02;;;;;;;11.70;7.60;;;;;;;21.33;100.00;100488.13;5588082;31;33709;-69
2023/08/18 00:21:05;;;;;;;15.18;7.70;;;;;;;21.33;100.00;100492.69;5587925;31;34626;-69
2023/08/18 00:24:07;;;;;;;11.98;7.90;;;;;;;21.35;100.00;100490.59;5588021;31;34404;-69
2023/08/18 00:27:10;;;;;;;14.13;8.10;;;;;;;21.35;100.00;100494.09;5588376;31;33889;-69
2023/08/18 00:30:14;;;;;;;11.70;7.90;;;;;;;21.32;100.00;100491.03;5587890;31;34639;-69
2023/08/18 00:33:17;;;;;;;10.55;7.43;;;;;;;21.44;100.00;100492.69;5587813;31;33943;-69
2023/08/18 00:36:20;;;;;;;9.32;7.87;;;;;;;21.36;100.00;100489.50;5588014;31;33543;-69
2023/08/18 00:39:26;;;;;;;12.18;7.80;;;;;;;21.24;100.00;100489.53;5587759;31;33875;-69
2023/08/18 00:42:29;;;;;;;9.60;8.00;;;;;;;21.22;100.00;100484.37;5587914;31;33738;-69
2023/08/18 00:45:32;;;;;;;9.60;7.62;;;;;;;21.25;100.00;100480.38;5587549;31;35410;-68
2023/08/18 00:48:37;;;;;;;10.60;8.45;;;;;;;21.19;100.00;100481.31;5587756;31;34516;-69
2023/08/18 00:51:41;;;;;;;11.12;8.35;;;;;;;21.22;100.00;100483.53;5586930;31;33859;-69
2023/08/18 00:54:47;;;;;;;13.35;8.30;;;;;;;21.14;100.00;100476.63;5587684;31;33618;-69
2023/08/18 00:57:50;;;;;;;14.35;8.45;;;;;;;21.13;100.00;100482.22;5586769;31;34515;-69
2023/08/18 01:00:53;;;;;;;13.60;7.93;;;;;;;21.07;100.00;100475.88;5586775;31;33584;-69
2023/08/18 01:03:56;;;;;;;9.98;8.25;;;;;;;20.98;100.00;100482.69;5585774;31;34313;-69
2023/08/18 01:07:00;;;;;;;12.60;8.43;;;;;;;20.97;100.00;100481.03;5586791;31;33759;-69
2023/08/18 01:10:02;;;;;;;13.20;8.90;;;;;;;20.92;100.00;100486.31;5587581;31;34494;-69
2023/08/18 01:13:21;;;;;;;9.68;7.82;;;;;;;20.89;100.00;100480.56;5587696;31;33908;-69
2023/08/18 01:16:28;;;;;;;12.02;8.27;;;;;;;20.88;100.00;100479.72;5587639;31;34585;-69
2023/08/18 01:19:31;;;;;;;10.75;7.68;;;;;;;20.93;100.00;100473.63;5587429;31;34951;-69
2023/08/18 01:22:35;;;;;;;9.50;8.02;;;;;;;20.92;100.00;100475.50;5587490;31;34531;-69
2023/08/18 01:25:38;;;;;;;11.07;8.30;;;;;;;20.95;100.00;100476.94;5587536;31;34009;-69
2023/08/18 01:28:43;;;;;;;13.18;8.07;;;;;;;20.91;100.00;100479.28;5587427;31;33429;-69
2023/08/18 01:31:52;;;;;;;11.38;7.87;;;;;;;20.89;100.00;100475.16;5587395;31;34583;-69
2023/08/18 01:34:57;;;;;;;12.52;7.72;;;;;;;20.91;100.00;100476.59;5587579;31;33821;-69
2023/08/18 01:38:03;;;;;;;10.57;7.35;;;;;;;20.95;100.00;100463.44;5587427;31;33526;-69
2023/08/18 01:41:06;;;;;;;9.52;7.43;;;;;;;20.95;100.00;100455.38;5586501;31;33645;-69
2023/08/18 01:44:14;;;;;;;14.48;7.78;;;;;;;20.95;100.00;100464.28;5587580;31;33846;-69
2023/08/18 01:47:17;;;;;;;10.50;7.80;;;;;;;20.99;100.00;100464.63;5586299;31;34203;-69
2023/08/18 01:50:20;;;;;;;13.55;7.50;;;;;;;21.04;100.00;100457.47;5586483;31;33706;-69
2023/08/18 01:53:23;;;;;;;13.88;7.90;;;;;;;20.92;100.00;100453.94;5587117;31;33969;-69
2023/08/18 01:56:28;;;;;;;11.75;7.97;;;;;;;20.91;100.00;100456.88;5587121;31;33818;-69
2023/08/18 01:59:31;;;;;;;10.52;8.05;;;;;;;20.92;100.00;100470.13;5587213;31;34600;-69
2023/08/18 02:02:35;;;;;;;10.35;7.57;;;;;;;20.91;100.00;100467.69;5586222;31;33450;-69
2023/08/18 02:05:41;;;;;;;12.90;7.85;;;;;;;20.94;100.00;100478.81;5586792;31;33143;-70
2023/08/18 02:08:44;;;;;;;12.10;8.10;;;;;;;20.81;100.00;100468.25;5587041;31;34580;-70
2023/08/18 02:11:47;;;;;;;10.77;7.68;;;;;;;20.71;100.00;100470.69;5586948;31;35484;-70
2023/08/18 02:14:50;;;;;;;12.25;7.80;;;;;;;20.65;100.00;100472.44;5586697;31;34564;-70
2023/08/18 02:17:53;;;;;;;11.80;8.35;;;;;;;20.65;100.00;100464.34;5586707;31;34061;-70
2023/08/18 02:20:57;;;;;;;14.85;8.50;;;;;;;20.59;100.00;100465.25;5586935;31;33969;-70
2023/08/18 02:24:00;;;;;;;14.18;8.25;;;;;;;20.60;100.00;100466.91;5587162;31;33580;-70
2023/08/18 02:27:03;;;;;;;13.68;8.40;;;;;;;20.79;100.00;100456.88;5585993;31;34535;-70
2023/08/18 02:30:06;;;;;;;11.38;8.80;;;;;;;20.70;100.00;100455.56;5586804;31;34688;-70
2023/08/18 02:33:10;;;;;;;14.02;8.73;;;;;;;20.69;100.00;100462.00;5585897;31;34913;-70
2023/08/18 02:36:13;;;;;;;13.05;8.77;;;;;;;20.75;100.00;100464.59;5586733;31;34095;-70
2023/08/18 02:39:16;;;;;;;14.18;8.35;;;;;;;20.66;100.00;100462.47;5587100;31;33668;-70
2023/08/18 02:42:20;;;;;;;9.68;8.40;;;;;;;20.65;100.00;100447.34;5585850;31;33720;-70
2023/08/18 02:45:22;;;;;;;11.75;8.57;;;;;;;20.63;100.00;100455.66;5585992;31;33832;-70
2023/08/18 02:48:29;;;;;;;13.52;8.52;;;;;;;20.59;100.00;100456.34;5586434;31;34870;-70
2023/08/18 02:51:33;;;;;;;12.60;8.57;;;;;;;20.61;100.00;100457.78;5586707;31;33933;-70
2023/08/18 02:54:36;;;;;;;14.45;8.68;;;;;;;20.62;100.00;100451.31;5586509;31;33797;-69
2023/08/18 02:57:39;;;;;;;13.77;9.35;;;;;;;20.63;100.00;100455.66;5586858;31;33716;-70
2023/08/18 03:00:41;;;;;;;15.32;8.68;;;;;;;20.62;100.00;100456.69;5586536;31;33607;-70
2023/08/18 03:03:44;;;;;;;12.40;9.30;;;;;;;20.61;100.00;100462.34;5585573;31;34060;-70
2023/08/18 03:06:47;;;;;;;13.43;8.75;;;;;;;20.62;100.00;100458.59;5586276;31;33836;-70
2023/08/18 03:09:49;;;;;;;12.23;8.63;;;;;;;20.57;100.00;100456.59;5586482;31;33241;-70
2023/08/18 03:12:52;;;;;;;17.33;9.48;;;;;;;20.53;100.00;100452.72;5586660;31;33924;-70
2023/08/18 03:15:56;;;;;;;12.25;9.07;;;;;;;20.60;100.00;100458.00;5586223;31;33456;-70
2023/08/18 03:18:58;;;;;;;10.98;8.73;;;;;;;20.62;100.00;100464.00;5586068;31;34126;-70
2023/08/18 03:22:01;;;;;;;14.75;8.45;;;;;;;20.53;100.00;100468.88;5586059;31;34154;-70
2023/08/18 03:25:04;;;;;;;12.43;9.02;;;;;;;20.73;100.00;100473.97;5586038;31;34014;-70
2023/08/18 03:28:08;;;;;;;14.13;8.68;;;;;;;20.66;100.00;100473.25;5587223;31;33957;-70
2023/08/18 03:31:11;;;;;;;17.58;9.07;;;;;;;20.66;100.00;100468.69;5588745;31;33891;-69
2023/08/18 03:34:14;;;;;;;10.55;8.38;;;;;;;20.52;100.00;100463.72;5588350;31;34324;-69
2023/08/18 03:37:17;;;;;;;15.52;8.93;;;;;;;20.60;100.00;100468.78;5587503;31;33560;-69
2023/08/18 03:40:20;;;;;;;11.40;8.48;;;;;;;20.64;100.00;100475.34;5588392;31;33648;-70
2023/08/18 03:43:23;;;;;;;9.65;7.72;;;;;;;20.60;100.00;100468.78;5588354;31;33653;-69
2023/08/18 03:46:26;;;;;;;16.37;7.97;;;;;;;20.51;100.00;100467.47;5588251;31;33906;-69
2023/08/18 03:49:29;;;;;;;12.65;8.25;;;;;;;20.53;100.00;100473.44;5588121;31;34054;-69
2023/08/18 03:52:32;;;;;;;13.55;8.73;;;;;;;20.56;100.00;100468.44;5587278;31;33882;-69
2023/08/18 03:55:35;;;;;;;10.80;8.00;;;;;;;20.59;100.00;100476.03;5587169;31;34089;-70
2023/08/18 03:58:38;;;;;;;19.95;8.55;;;;;;;20.54;100.00;100478.63;5588094;31;33397;-70
2023/08/18 04:01:41;;;;;;;12.70;8.05;;;;;;;20.59;100.00;100473.34;5588060;31;35467;-70
2023/08/18 04:04:45;;;;;;;9.23;8.23;;;;;;;20.68;100.00;100469.25;5587987;31;33998;-70
2023/08/18 04:07:47;;;;;;;12.88;8.75;;;;;;;20.70;100.00;100460.97;5588187;31;33897;-70
2023/08/18 04:10:50;;;;;;;11.60;9.13;;;;;;;20.75;100.00;100461.91;5588152;31;34344;-70
2023/08/18 04:13:53;;;;;;;20.40;9.15;;;;;;;20.89;100.00;100465.19;5587259;31;34026;-68
2023/08/18 04:16:56;;;;;;;11.10;8.68;;;;;;;20.95;100.00;100453.50;5588255;31;33925;-68
2023/08/18 04:19:59;;;;;;;12.88;8.70;;;;;;;20.93;100.00;100460.97;5587731;31;34743;-68
2023/08/18 04:23:03;;;;;;;11.07;8.13;;;;;;;21.05;100.00;100463.69;5588045;31;33799;-68
2023/08/18 04:26:05;;;;;;;15.93;8.85;;;;;;;20.93;100.00;100465.56;5587663;31;33615;-69
2023/08/18 04:29:08;;;;;;;12.32;8.75;;;;;;;21.01;100.00;100462.53;5587871;31;34085;-68
2023/08/18 04:32:11;;;;;;;12.27;8.18;;;;;;;20.90;100.00;100469.56;5588148;31;34591;-68
2023/08/18 04:35:15;;;;;;;12.45;8.57;;;;;;;20.89;100.00;100467.06;5588034;31;34250;-68
2023/08/18 04:38:18;;;;;;;14.18;8.70;;;;;;;20.93;100.00;100471.75;5587000;31;34002;-68
2023/08/18 04:41:22;;;;;;;17.15;8.60;;;;;;;20.94;100.00;100461.81;5586530;31;33893;-68
2023/08/18 04:44:25;;;;;;;12.02;8.23;;;;;;;20.96;100.00;100465.09;5587544;31;34397;-69
2023/08/18 04:47:28;;;;;;;10.88;8.60;;;;;;;21.04;100.00;100468.25;5587583;31;34672;-69
2023/08/18 04:50:31;;;;;;;14.30;7.95;;;;;;;21.12;100.00;100473.31;5598046;31;34140;-69
2023/08/18 04:53:34;;;;;;;13.57;7.93;;;;;;;21.16;100.00;100481.78;5607545;31;34627;-69
2023/08/18 04:56:38;;;;;;;14.87;7.78;;;;;;;21.28;100.00;100490.69;5607193;31;34038;-69
2023/08/18 04:59:41;;;;;;;16.85;7.90;;;;;;;21.31;100.00;100481.31;5606964;31;34733;-69
2023/08/18 05:02:43;;;;;;;12.80;7.85;;;;;;;21.39;100.00;100484.50;5607127;31;34202;-68
2023/08/18 05:06:03;;;;;;;13.20;7.60;;;;;;;21.49;100.00;100486.59;5607288;31;34543;-69
2023/08/18 05:09:05;;;;;;;20.58;8.88;;;;;;;21.59;100.00;100495.72;5607122;31;34499;-68
2023/08/18 05:12:09;;;;;;;10.55;7.03;;;;;;;21.69;100.00;100493.22;5607039;31;34502;-68
2023/08/18 05:15:12;;;;;;;8.27;6.37;;;;;;;21.62;100.00;100489.84;5606222;31;33535;-69
2023/08/18 05:18:15;;;;;;;12.68;6.20;;;;;;;21.71;100.00;100490.31;5606878;31;33973;-68
2023/08/18 05:21:18;;;;;;;9.57;6.37;;;;;;;21.66;100.00;100496.41;5606882;31;33968;-68
2023/08/18 05:24:21;;;;;;;12.43;6.78;;;;;;;21.75;100.00;100491.47;5605700;31;34706;-68
2023/08/18 05:27:23;;;;;;;9.57;6.05;;;;;;;21.83;100.00;100501.09;5606848;31;33995;-68
2023/08/18 05:30:26;;;;;;;9.48;6.37;;;;;;;21.89;100.00;100505.53;5606207;31;33911;-68
2023/08/18 05:33:29;;;;;;;13.95;6.18;;;;;;;21.96;100.00;100501.66;5604724;31;34144;-68
2023/08/18 05:36:32;;;;;;;10.13;6.30;;;;;;;22.05;100.00;100502.09;5592392;31;34612;-69
2023/08/18 05:39:34;;;;;;;11.10;6.43;;;;;;;22.02;100.00;100508.81;5594087;31;34082;-69
2023/08/18 05:42:37;;;;;;;11.48;5.97;;;;;;;21.97;100.00;100511.44;5586484;31;33350;-69
2023/08/18 05:45:40;;;;;;;14.00;7.05;;;;;;;22.02;100.00;100513.41;5597697;31;32749;-69
2023/08/18 05:48:43;;;;;;;14.73;7.20;;;;;;;22.09;100.00;100509.50;5601179;31;34434;-69
2023/08/18 05:51:49;;;;;;;11.85;7.50;;;;;;;22.32;100.00;100510.44;5594450;31;34400;-69
2023/08/18 05:54:52;;;;;;;14.32;7.47;;;;;;;22.54;100.00;100514.13;5586204;31;34568;-70
2023/08/18 05:57:58;;;;;;;12.60;6.65;;;;;;;22.66;100.00;100508.66;5586541;31;33939;-69
2023/08/18 06:01:01;;;;;;;12.05;6.57;;;;;;;23.01;100.00;100516.56;5587363;31;34257;-70
2023/08/18 06:04:04;;;;;;;9.05;6.43;;;;;;;23.16;100.00;100514.13;5587918;31;33673;-69
2023/08/18 06:07:07;;;;;;;12.20;6.37;;;;;;;22.91;100.00;100514.53;5601049;31;33863;-68
2023/08/18 06:10:11;;;;;;;11.63;6.50;;;;;;;22.84;100.00;100503.06;5591548;31;33788;-68
2023/08/18 06:13:13;;;;;;;7.80;5.82;;;;;;;22.70;100.00;100504.41;5588066;31;35013;-68
2023/08/18 06:16:16;;;;;;;18.05;6.45;;;;;;;22.61;100.00;100508.59;5586369;31;33927;-69
2023/08/18 06:19:19;;;;;;;7.57;6.03;;;;;;;22.62;100.00;100502.09;5586089;31;33835;-68
2023/08/18 06:22:22;;;;;;;8.60;5.87;;;;;;;22.75;100.00;100501.84;5586527;31;34320;-72
2023/08/18 06:25:24;;;;;;;9.73;5.87;;;;;;;22.91;100.00;100501.00;5586396;31;35094;-69
2023/08/18 06:28:28;;;;;;;14.40;6.05;;;;;;;22.91;100.00;100501.00;5599604;31;33923;-69
2023/08/18 06:31:30;;;;;;;10.38;5.55;;;;;;;22.94;100.00;100504.06;5605622;31;33856;-69
2023/08/18 06:34:33;;;;;;;7.87;5.60;;;;;;;22.95;100.00;100510.25;5605476;31;34869;-68
2023/08/18 06:37:36;;;;;;;9.50;5.30;;;;;;;23.26;100.00;100504.28;5605951;31;34084;-69
2023/08/18 06:40:39;;;;;;;8.73;5.30;;;;;;;23.38;100.00;100510.41;5606147;31;33479;-69
2023/08/18 06:43:41;;;;;;;7.72;5.03;;;;;;;23.74;100.00;100513.62;5605768;31;34092;-69
2023/08/18 06:46:44;;;;;;;10.65;5.07;;;;;;;23.75;100.00;100509.88;5606225;31;34686;-69
2023/08/18 06:49:47;;;;;;;12.40;5.00;;;;;;;23.72;100.00;100504.97;5605913;31;34164;-70
2023/08/18 06:52:50;;;;;;;6.95;5.40;;;;;;;24.00;100.00;100509.38;5605876;31;34396;-69
2023/08/18 06:55:55;;;;;;;11.18;4.90;;;;;;;23.94;100.00;100502.25;5605044;31;33910;-70
2023/08/18 06:59:05;;;;;;;13.95;5.47;;;;;;;24.67;100.00;100513.38;5605896;31;33802;-68
2023/08/18 07:02:07;;;;;;;8.25;5.20;;;;;;;24.99;100.00;100518.03;5602167;31;35110;-67
2023/08/18 07:05:12;;;;;;;9.55;4.97;;;;;;;24.78;100.00;100529.75;5599485;31;34033;-69
2023/08/18 07:08:15;;;;;;;9.48;5.20;;;;;;;25.11;100.00;100532.25;5588495;31;34678;-68
2023/08/18 07:11:18;;;;;;;13.52;5.40;;;;;;;24.65;100.00;100534.50;5585971;31;35031;-69
2023/08/18 07:14:20;;;;;;;9.40;5.68;;;;;;;24.74;100.00;100528.66;5585931;31;34176;-69
2023/08/18 07:17:23;;;;;;;7.90;5.18;;;;;;;25.17;100.00;100531.22;5584785;31;34727;-69
2023/08/18 07:20:26;;;;;;;7.97;5.00;;;;;;;25.64;100.00;100528.56;5585790;31;34133;-69
2023/08/18 07:23:29;;;;;;;11.32;5.15;;;;;;;25.93;100.00;100526.25;5585265;31;34783;-70
2023/08/18 07:26:31;;;;;;;9.18;4.55;;;;;;;26.65;100.00;100530.84;5585588;31;34535;-70
2023/08/18 07:29:34;;;;;;;6.10;4.50;;;;;;;26.27;100.00;100530.22;5585461;31;34213;-69
2023/08/18 07:32:37;;;;;;;13.48;5.05;;;;;;;26.06;100.00;100533.09;5584127;31;33674;-69
2023/08/18 07:35:40;;;;;;;11.95;4.80;;;;;;;25.59;100.00;100536.69;5585256;31;33923;-68
2023/08/18 07:38:43;;;;;;;8.93;5.00;;;;;;;25.42;100.00;100527.84;5585209;31;34794;-68
2023/08/18 07:41:45;;;;;;;8.70;5.03;;;;;;;26.10;100.00;100532.28;5585270;31;34021;-69
2023/08/18 07:44:48;;;;;;;9.35;5.07;;;;;;;26.14;100.00;100535.31;5584607;31;34322;-68
2023/08/18 07:47:51;;;;;;;9.10;4.90;;;;;;;25.58;100.00;100526.88;5584935;31;33824;-68
2023/08/18 07:50:55;;;;;;;5.60;5.00;;;;;;;26.15;100.00;100539.66;5583806;31;34818;-68
2023/08/18 07:53:57;;;;;;;7.62;5.10;;;;;;;26.19;100.00;100543.50;5584399;31;34215;-69
2023/08/18 07:57:02;;;;;;;9.38;5.15;;;;;;;26.34;100.00;100547.09;5584517;31;33895;-68
2023/08/18 08:00:13;;;;;;;9.88;5.50;;;;;;;25.71;100.00;100552.75;5584593;31;33888;-68
2023/08/18 08:03:16;;;;;;;9.45;5.32;;;;;;;25.69;100.00;100552.22;5584591;31;34770;-68
2023/08/18 08:06:19;;;;;;;9.40;5.30;;;;;;;25.67;100.00;100560.62;5584403;31;34174;-68
2023/08/18 08:09:24;;;;;;;12.35;5.60;;;;;;;25.72;100.00;100562.56;5584473;31;34265;-67
2023/08/18 08:12:26;;;;;;;10.02;5.60;;;;;;;25.71;100.00;100566.34;5584595;31;34018;-68
2023/08/18 08:15:30;;;;;;;9.98;5.65;;;;;;;26.06;100.00;100568.44;5586969;31;33863;-68
2023/08/18 08:18:33;;;;;;;10.10;5.32;;;;;;;26.56;100.00;100565.94;5586625;31;34149;-68
2023/08/18 08:21:36;;;;;;;10.23;5.53;;;;;;;26.99;100.00;100572.03;5586864;31;34499;-69
2023/08/18 08:24:39;;;;;;;12.10;5.37;;;;;;;27.62;100.00;100574.19;5587243;31;34315;-69
2023/08/18 08:27:45;;;;;;;8.60;5.65;;;;;;;28.67;100.00;100574.06;5566178;31;34512;-69
2023/08/18 08:30:48;;;;;;;11.02;5.40;;;;;;;28.73;100.00;100586.63;5581827;31;34458;-67
2023/08/18 08:33:52;;;;;;;13.48;5.40;;;;;;;29.40;96.72;100585.03;5591304;31;34579;-68
2023/08/18 08:36:56;;;;;;;7.47;5.05;;;;;;;29.62;95.04;100590.03;5602673;31;33268;-68
2023/08/18 08:39:58;;;;;;;8.98;5.60;;;;;;;28.69;100.00;100591.00;5606728;31;33705;-68
2023/08/18 08:43:03;;;;;;;11.65;5.60;;;;;;;28.75;100.00;100592.63;5603618;31;34086;-68
2023/08/18 08:46:07;;;;;;;12.30;5.30;;;;;;;28.56;100.00;100580.69;5606834;31;34065;-68
2023/08/18 08:49:14;;;;;;;9.27;4.93;;;;;;;29.07;100.00;100585.84;5605908;31;34768;-67
2023/08/18 08:52:18;;;;;;;7.68;3.95;;;;;;;30.60;85.68;100590.25;5606306;31;34084;-69
2023/08/18 08:55:24;;;;;;;5.85;3.60;;;;;;;31.97;71.79;100578.94;5604867;31;34263;-69
2023/08/18 08:58:31;;;;;;;8.88;3.67;;;;;;;33.25;61.60;100592.34;5594968;31;33834;-69
2023/08/18 09:01:35;;;;;;;5.47;3.30;;;;;;;33.50;57.85;100586.97;5586546;31;33765;-69
2023/08/18 09:04:42;;;;;;;14.97;3.80;;;;;;;32.85;57.82;100581.16;5588083;31;34426;-69
2023/08/18 09:07:45;;;;;;;4.87;3.50;;;;;;;33.20;57.52;100574.03;5587117;31;34339;-68
2023/08/18 09:10:54;;;;;;;7.37;3.70;;;;;;;32.20;60.88;100570.50;5587006;31;33817;-69
2023/08/18 09:13:57;;;;;;;7.90;4.00;;;;;;;32.29;62.69;100571.41;5586275;31;33729;-69
2023/08/18 09:17:01;;;;;;;6.68;3.72;;;;;;;31.34;64.31;100563.91;5587102;31;34300;-68
2023/08/18 09:20:05;;;;;;;8.65;4.85;;;;;;;30.92;67.65;100564.84;5586005;31;33860;-68
2023/08/18 09:23:08;;;;;;;7.15;4.00;;;;;;;31.13;67.93;100562.59;5605174;31;33741;-68
2023/08/18 09:26:11;;;;;;;6.68;3.90;;;;;;;31.53;63.15;100555.59;5588109;31;34514;-70
2023/08/18 09:29:13;;;;;;;4.57;3.67;;;;;;;32.78;61.74;100569.78;5589203;31;33601;-68
2023/08/18 09:32:16;;;;;;;8.27;3.62;;;;;;;33.17;56.70;100561.69;5588769;31;33768;-69
2023/08/18 09:35:22;;;;;;;9.13;4.30;;;;;;;32.12;59.78;100560.25;5586949;31;33823;-69
2023/08/18 09:38:27;;;;;;;7.68;4.15;;;;;;;31.44;65.38;100555.50;5587336;31;34226;-68
2023/08/18 09:41:31;;;;;;;11.85;4.65;;;;;;;30.60;69.46;100559.31;5586812;31;34522;-68
2023/08/18 09:44:35;;;;;;;7.90;4.60;;;;;;;30.04;76.35;100559.22;5586753;31;33640;-69
2023/08/18 09:47:38;;;;;;;6.37;4.20;;;;;;;29.95;76.74;100559.06;5585939;31;34506;-69
2023/08/18 09:50:47;;;;;;;8.45;4.45;;;;;;;29.40;82.63;100545.94;5585760;31;33811;-68
2023/08/18 09:53:58;;;;;;;6.40;4.43;;;;;;;29.26;82.29;100545.78;5586549;31;34685;-69
2023/08/18 09:57:06;;;;;;;6.68;4.43;;;;;;;30.42;77.78;100546.41;5598226;31;35167;-69
2023/08/18 10:00:11;;;;;;;5.18;4.07;;;;;;;30.46;77.15;100540.06;5605957;31;34585;-70
2023/08/18 10:03:17;;;;;;;5.62;4.30;;;;;;;30.49;74.95;100542.25;5606169;31;32550;-68
2023/08/18 10:06:21;;;;;;;8.85;4.32;;;;;;;29.86;78.79;100544.38;5606692;31;33960;-69
2023/08/18 10:09:27;;;;;;;5.57;4.12;;;;;;;29.78;84.67;100545.81;5605396;31;33910;-69
2023/08/18 10:12:30;;;;;;;6.15;4.78;;;;;;;30.07;80.92;100545.75;5595725;31;33587;-69
2023/08/18 10:15:36;;;;;;;7.07;4.80;;;;;;;31.11;74.49;100545.66;5606573;31;33200;-69
2023/08/18 10:18:38;;;;;;;7.65;4.05;;;;;;;31.01;70.87;100546.66;5606283;31;33618;-69
2023/08/18 10:21:41;;;;;;;9.13;4.35;;;;;;;31.52;66.39;100542.22;5606328;31;33575;-69
2023/08/18 10:24:46;;;;;;;8.82;4.53;;;;;;;31.10;72.05;100538.56;5606270;31;33977;-69
2023/08/18 10:27:49;;;;;;;8.95;4.85;;;;;;;30.80;74.84;100533.53;5606261;31;33947;-69
2023/08/18 10:30:57;;;;;;;11.93;5.22;;;;;;;30.28;76.92;100532.63;5606516;31;35084;-70
2023/08/18 10:34:01;;;;;;;11.23;4.50;;;;;;;30.55;77.95;100538.28;5605562;31;33902;-69
2023/08/18 10:37:04;;;;;;;7.40;4.40;;;;;;;29.78;79.25;100542.25;5605272;31;34637;-68
2023/08/18 10:40:08;;;;;;;8.52;4.72;;;;;;;30.12;76.89;100542.16;5604801;31;34389;-70
2023/08/18 10:43:15;;;;;;;6.95;4.53;;;;;;;30.82;72.99;100547.75;5606311;31;33851;-69
2023/08/18 10:46:18;;;;;;;6.20;4.85;;;;;;;31.39;66.78;100543.78;5606198;31;33798;-70
2023/08/18 10:49:21;;;;;;;10.75;4.30;;;;;;;34.59;55.09;100538.44;5606167;31;34368;-71
2023/08/18 10:52:27;;;;;;;4.87;4.03;;;;;;;33.62;56.42;100534.94;5605994;31;34036;-70
2023/08/18 10:55:31;;;;;;;6.57;3.85;;;;;;;31.98;62.93;100540.22;5606243;31;35004;-71
2023/08/18 10:58:35;;;;;;;5.87;4.07;;;;;;;33.57;56.12;100534.25;5606367;31;34414;-69
2023/08/18 11:01:37;;;;;;;6.97;3.90;;;;;;;33.12;56.85;100530.75;5606113;31;33945;-69
2023/08/18 11:04:41;;;;;;;8.43;3.90;;;;;;;35.41;49.88;100526.34;5605733;31;33804;-68
2023/08/18 11:07:44;;;;;;;10.77;3.47;;;;;;;36.67;46.20;100528.25;5605585;31;34516;-70
2023/08/18 11:10:47;;;;;;;7.95;3.62;;;;;;;37.38;43.57;100539.91;5606176;31;33663;-68
2023/08/18 11:13:50;;;;;;;7.37;3.12;;;;;;;36.00;44.59;100530.00;5606084;31;32764;-69
2023/08/18 11:16:53;;;;;;;6.07;3.33;;;;;;;36.04;43.74;100532.91;5605808;31;33742;-69
2023/08/18 11:19:56;;;;;;;4.93;3.35;;;;;;;36.42;44.28;100539.16;5605623;31;34693;-72
2023/08/18 11:22:59;;;;;;;4.05;3.00;;;;;;;35.45;44.86;100538.34;5605685;31;33638;-70
2023/08/18 11:26:03;;;;;;;4.55;3.25;;;;;;;38.61;40.22;100534.00;5605537;31;33895;-69
2023/08/18 11:29:07;;;;;;;6.43;3.40;;;;;;;39.37;38.22;100531.00;5604836;31;34745;-70
2023/08/18 11:32:14;;;;;;;6.00;3.10;;;;;;;40.48;37.54;100526.91;5586852;31;34733;-70
2023/08/18 11:35:20;;;;;;;4.70;3.08;;;;;;;39.23;37.92;100524.25;5605377;31;33984;-71
2023/08/18 11:38:23;;;;;;;6.07;3.50;;;;;;;37.96;38.90;100516.53;5605303;31;33860;-70
2023/08/18 11:41:26;;;;;;;5.18;3.30;;;;;;;36.21;42.93;100518.22;5605905;31;33956;-70
2023/08/18 11:44:32;;;;;;;5.93;3.47;;;;;;;37.01;42.52;100520.44;5605650;31;34830;-69
2023/08/18 11:47:36;;;;;;;8.00;3.55;;;;;;;36.24;43.63;100512.00;5605509;31;33900;-70
2023/08/18 11:50:42;;;;;;;7.90;3.37;;;;;;;38.38;39.61;100507.97;5603495;31;34586;-70
2023/08/18 11:53:45;;;;;;;4.12;3.35;;;;;;;40.41;37.31;100515.66;5589389;31;33864;-70
2023/08/18 11:56:50;;;;;;;5.65;3.47;;;;;;;38.09;39.59;100498.78;5591941;31;34798;-70
2023/08/18 11:59:53;;;;;;;3.72;3.00;;;;;;;39.25;39.35;100506.09;5587505;31;33956;-70
2023/08/18 12:02:56;;;;;;;4.65;2.95;;;;;;;41.99;33.47;100508.63;5588020;31;33911;-69
2023/08/18 12:06:00;;;;;;;4.78;2.90;;;;;;;38.24;38.60;100502.81;5581832;31;34557;-69
2023/08/18 12:09:07;;;;;;;6.80;3.17;;;;;;;38.81;37.76;100502.50;5607305;31;34576;-70
2023/08/18 12:12:15;;;;;;;5.90;3.17;;;;;;;38.45;37.66;100491.56;5607797;31;34543;-69
2023/08/18 12:15:20;;;;;;;6.12;2.78;;;;;;;38.92;37.19;100487.00;5607605;31;33798;-70
2023/08/18 12:18:23;;;;;;;5.90;2.75;;;;;;;40.38;34.28;100483.81;5606819;31;33804;-70
2023/08/18 12:21:25;;;;;;;6.70;3.10;;;;;;;38.01;38.00;100471.19;5607742;31;33925;-70
2023/08/18 12:24:28;;;;;;;4.75;2.62;;;;;;;39.21;38.18;100468.31;5606655;31;34867;-69
2023/08/18 12:27:33;;;;;;;7.53;2.72;;;;;;;41.02;34.93;100471.16;5607980;31;33721;-69
2023/08/18 12:30:37;;;;;;;7.57;2.78;;;;;;;40.91;33.03;100472.16;5607123;31;33997;-69
2023/08/18 12:33:40;;;;;;;6.20;2.90;;;;;;;40.07;34.98;100466.44;5607667;31;33841;-69
2023/08/18 12:36:43;;;;;;;7.50;2.80;;;;;;;39.45;35.39;100474.50;5606564;31;33775;-69
2023/08/18 12:39:47;;;;;;;6.37;2.70;;;;;;;41.69;32.03;100476.28;5606014;31;33402;-70
2023/08/18 12:42:51;;;;;;;3.25;2.28;;;;;;;45.45;27.61;100480.09;5599353;31;33934;-70
2023/08/18 12:45:58;;;;;;;4.60;2.50;;;;;;;45.42;27.50;100478.88;5590970;31;33844;-71
2023/08/18 12:49:04;;;;;;;6.78;3.15;;;;;;;43.14;29.35;100469.78;5588480;31;31955;-70
2023/08/18 12:52:07;;;;;;;5.90;2.60;;;;;;;45.43;26.74;100474.87;5587652;31;33889;-70
2023/08/18 12:55:11;;;;;;;5.50;2.70;;;;;;;43.04;28.84;100470.47;5591220;31;33510;-69
2023/08/18 12:58:16;;;;;;;71.20;5.70;;;;;;;38.88;34.11;100465.84;5606427;31;34608;-69
2023/08/18 13:01:19;;;;;;;5.53;2.55;;;;;;;37.15;38.03;100455.72;5593662;31;34064;-69
2023/08/18 13:04:22;;;;;;;7.97;2.78;;;;;;;34.59;44.10;100458.53;5587939;31;34582;-70
2023/08/18 13:07:24;;;;;;;6.20;2.60;;;;;;;33.71;45.23;100455.19;5586925;31;34887;-69
2023/08/18 13:10:30;;;;;;;7.20;3.25;;;;;;;33.44;48.23;100456.22;5587555;31;33835;-70
2023/08/18 13:13:35;;;;;;;9.98;3.45;;;;;;;33.09;50.18;100457.97;5601085;31;33663;-70
2023/08/18 13:16:41;;;;;;;5.85;3.10;;;;;;;35.00;46.11;100448.91;5606638;31;34528;-70
2023/08/18 13:19:48;;;;;;;6.97;3.45;;;;;;;38.86;38.84;100444.00;5606062;31;33939;-71
2023/08/18 13:22:52;;;;;;;4.50;2.90;;;;;;;42.26;33.71;100450.03;5605768;31;34835;-69
2023/08/18 13:25:55;;;;;;;10.55;3.22;;;;;;;41.21;33.97;100448.06;5605906;31;33922;-70
2023/08/18 13:28:58;;;;;;;11.20;3.50;;;;;;;40.37;34.49;100442.47;5606714;31;33910;-71
2023/08/18 13:32:01;;;;;;;6.78;3.22;;;;;;;38.16;37.87;100442.78;5605267;31;34069;-70
2023/08/18 13:35:05;;;;;;;5.22;3.40;;;;;;;36.12;41.71;100438.91;5602589;31;32887;-70
2023/08/18 13:38:09;;;;;;;8.43;2.90;;;;;;;34.96;44.48;100432.19;5605738;31;33863;-69
2023/08/18 13:41:14;;;;;;;5.35;2.95;;;;;;;34.80;45.09;100437.44;5593905;31;32413;-68
2023/08/18 13:44:23;;;;;;;4.15;2.90;;;;;;;34.99;42.81;100439.03;5593031;31;33783;-69
2023/08/18 13:47:26;;;;;;;6.32;3.17;;;;;;;34.52;44.34;100432.63;5601640;31;33564;-70
2023/08/18 13:50:29;;;;;;;7.80;2.72;;;;;;;33.98;45.65;100430.16;5590173;31;34755;-69
2023/08/18 13:53:37;;;;;;;8.52;2.78;;;;;;;36.14;40.33;100436.66;5587965;31;34840;-70
2023/08/18 13:56:42;;;;;;;7.00;3.05;;;;;;;37.64;38.08;100437.19;5600043;31;33900;-69
2023/08/18 13:59:45;;;;;;;8.10;3.12;;;;;;;37.61;39.88;100435.94;5589306;31;34581;-68
2023/08/18 14:02:48;;;;;;;5.90;3.30;;;;;;;38.26;37.24;100436.72;5605996;31;34684;-70
2023/08/18 14:05:51;;;;;;;4.85;3.28;;;;;;;38.39;37.48;100435.56;5606128;31;35235;-70